createdAt,value
2023-01-28T02:31:56.252Z,64.14
2023-01-28T02:33:07.674Z,63.85
2023-01-28T02:34:26.473Z,63.27
2023-01-28T02:35:38.186Z,62.74
2023-01-28T02:36:48.968Z,62.17
2023-01-28T02:37:58.402Z,61.80
2023-01-28T02:39:08.718Z,61.67
2023-01-28T02:40:21.771Z,61.35
2023-01-28T02:41:36.385Z,61.22
2023-01-28T02:42:41.195Z,61.26
2023-01-28T02:43:47.199Z,60.63
2023-01-28T02:44:50.336Z,60.66
2023-01-28T02:46:12.806Z,60.37
2023-01-28T02:47:35.344Z,59.80
2023-01-28T02:48:38.945Z,59.91
2023-01-28T02:49:47.651Z,60.21
2023-01-28T02:51:03.393Z,59.98
2023-01-28T02:52:48.286Z,60.04
2023-01-28T02:54:00.145Z,60.04
2023-01-28T02:55:26.645Z,59.82
2023-01-28T02:56:44.119Z,59.92
2023-01-28T02:57:54.777Z,59.77
2023-01-28T02:59:29.694Z,59.74
2023-01-28T03:00:36.201Z,59.91
2023-01-28T03:01:42.938Z,59.77
2023-01-28T03:03:01.264Z,60.25
2023-01-28T03:04:16.375Z,60.42
2023-01-28T03:05:22.551Z,60.51
2023-01-28T03:06:29.012Z,60.55
2023-01-28T03:07:34.354Z,60.54
2023-01-28T03:09:01.153Z,60.54
2023-01-28T03:10:06.295Z,60.45
2023-01-28T03:11:27.623Z,60.40
2023-01-28T03:12:50.275Z,59.95
2023-01-28T03:14:11.940Z,59.37
2023-01-28T03:15:33.783Z,58.56
2023-01-28T03:16:55.839Z,57.68
2023-01-28T03:18:20.285Z,56.94
2023-01-28T03:19:42.735Z,56.99
2023-01-28T03:21:11.137Z,56.27
2023-01-28T03:22:32.839Z,56.05
2023-01-28T03:24:02.533Z,55.97
2023-01-28T03:25:27.714Z,55.87
2023-01-28T03:26:52.035Z,55.82
2023-01-28T03:28:15.956Z,56.39
2023-01-28T03:29:41.922Z,56.72
2023-01-28T03:31:13.641Z,58.62
2023-01-28T03:32:42.148Z,57.15
2023-01-28T03:34:04.093Z,57.14
2023-01-28T03:35:27.679Z,56.95
2023-01-28T03:36:50.360Z,57.62
2023-01-28T03:38:21.132Z,57.82
2023-01-28T03:39:26.114Z,58.23
2023-01-28T03:40:29.001Z,58.18
2023-01-28T03:41:31.840Z,57.97
2023-01-28T03:42:35.267Z,58.11
2023-01-28T03:43:45.481Z,57.98
2023-01-28T03:44:55.377Z,58.09
2023-01-28T03:45:58.435Z,58.23
2023-01-28T03:47:01.331Z,58.19
2023-01-28T03:48:04.214Z,58.37
2023-01-28T03:49:07.093Z,58.32
2023-01-28T03:50:10.507Z,59.19
2023-01-28T03:51:26.004Z,59.29
2023-01-28T03:52:32.497Z,59.14
2023-01-28T03:54:04.725Z,58.91
2023-01-28T03:55:13.572Z,58.84
2023-01-28T03:56:18.705Z,58.82
2023-01-28T03:57:23.581Z,59.12
2023-01-28T03:58:40.384Z,59.05
2023-01-28T03:59:43.411Z,59.37
2023-01-28T04:00:49.625Z,59.30
2023-01-28T04:01:53.452Z,59.39
2023-01-28T04:02:56.832Z,59.43
2023-01-28T04:04:01.069Z,59.57
2023-01-28T04:05:07.114Z,59.77
2023-01-28T04:06:11.698Z,60.01
2023-01-28T04:07:33.689Z,59.89
2023-01-28T04:08:53.437Z,59.98
2023-01-28T04:10:15.787Z,59.99
2023-01-28T04:11:33.372Z,61.44
2023-01-28T04:12:42.124Z,61.42
2023-01-28T04:13:49.305Z,62.15
2023-01-28T04:14:53.299Z,61.95
2023-01-28T04:16:05.704Z,63.04
2023-01-28T04:17:13.555Z,64.44
2023-01-28T04:18:19.739Z,65.18
2023-01-28T04:19:26.084Z,65.64
2023-01-28T04:20:30.411Z,65.76
2023-01-28T04:21:35.920Z,65.94
2023-01-28T04:22:40.098Z,66.03
2023-01-28T04:23:45.479Z,66.11
2023-01-28T04:24:49.950Z,66.16
2023-01-28T04:25:54.088Z,66.09
2023-01-28T04:26:58.126Z,66.13
2023-01-28T04:28:02.078Z,66.04
2023-01-28T04:29:06.584Z,65.77
2023-01-28T04:30:11.349Z,65.57
2023-01-28T04:31:17.334Z,65.40
2023-01-28T04:32:50.736Z,65.10
2023-01-28T04:34:03.552Z,65.02
2023-01-28T04:35:25.437Z,64.92
2023-01-28T04:36:54.215Z,65.04
2023-01-28T04:38:18.187Z,64.64
2023-01-28T04:39:32.593Z,64.64
2023-01-28T04:41:11.302Z,64.72
2023-01-28T04:42:14.437Z,64.82
2023-01-28T04:43:41.064Z,64.58
2023-01-28T04:45:08.729Z,64.14
2023-01-28T04:46:24.803Z,64.01
2023-01-28T04:47:49.119Z,63.52
2023-01-28T04:49:02.170Z,63.07
2023-01-28T04:50:23.301Z,63.27
2023-01-28T04:52:04.668Z,62.74
2023-01-28T04:53:37.139Z,62.29
2023-01-28T04:54:45.326Z,62.46
2023-01-28T04:55:49.627Z,62.57
2023-01-28T04:56:52.554Z,62.17
2023-01-28T04:57:55.598Z,61.96
2023-01-28T04:58:58.392Z,61.81
2023-01-28T05:00:01.277Z,61.84
2023-01-28T05:01:04.481Z,62.01
2023-01-28T05:02:08.440Z,62.16
2023-01-28T05:03:11.280Z,62.09
2023-01-28T05:04:14.358Z,62.04
2023-01-28T05:05:17.726Z,61.82
2023-01-28T05:06:31.674Z,61.58
2023-01-28T05:07:38.254Z,61.43
2023-01-28T05:08:41.335Z,61.26
2023-01-28T05:09:44.383Z,61.02
2023-01-28T05:10:47.329Z,60.79
2023-01-28T05:11:50.259Z,60.71
2023-01-28T05:12:53.341Z,60.72
2023-01-28T05:13:56.457Z,60.79
2023-01-28T05:15:03.824Z,61.12
2023-01-28T05:16:08.433Z,61.29
2023-01-28T05:17:11.923Z,61.47
2023-01-28T05:18:15.202Z,61.15
2023-01-28T05:19:23.515Z,60.69
2023-01-28T05:20:26.468Z,60.55
2023-01-28T05:21:32.296Z,60.45
2023-01-28T05:22:39.243Z,60.36
2023-01-28T05:24:11.401Z,60.39
2023-01-28T05:25:14.635Z,60.47
2023-01-28T05:26:20.666Z,60.45
2023-01-28T05:27:23.749Z,60.20
2023-01-28T05:28:26.634Z,60.00
2023-01-28T05:29:29.384Z,60.20
2023-01-28T05:30:32.970Z,60.19
2023-01-28T05:31:37.364Z,60.18
2023-01-28T05:32:40.674Z,60.25
2023-01-28T05:33:43.761Z,60.28
2023-01-28T05:34:48.016Z,60.28
2023-01-28T05:35:51.409Z,60.37
2023-01-28T05:36:55.875Z,60.34
2023-01-28T05:38:08.348Z,60.37
2023-01-28T05:39:11.297Z,60.33
2023-01-28T05:40:15.108Z,60.39
2023-01-28T05:41:18.275Z,60.32
2023-01-28T05:42:23.452Z,60.45
2023-01-28T05:43:31.818Z,60.42
2023-01-28T05:44:54.526Z,60.25
2023-01-28T05:46:18.080Z,60.28
2023-01-28T05:47:39.566Z,60.22
2023-01-28T05:49:22.552Z,59.99
2023-01-28T05:50:25.748Z,60.02
2023-01-28T05:51:48.540Z,60.03
2023-01-28T05:52:55.512Z,60.32
2023-01-28T05:54:02.948Z,60.37
2023-01-28T05:55:06.803Z,60.34
2023-01-28T05:56:10.173Z,60.34
2023-01-28T05:57:24.666Z,60.39
2023-01-28T05:58:31.112Z,60.37
2023-01-28T05:59:39.868Z,60.24
2023-01-28T06:00:42.790Z,60.16
2023-01-28T06:01:54.982Z,60.10
2023-01-28T06:02:57.828Z,60.06
2023-01-28T06:04:01.007Z,60.04
2023-01-28T06:05:06.220Z,60.09
2023-01-28T06:06:09.029Z,60.07
2023-01-28T06:07:13.533Z,60.03
2023-01-28T06:08:19.651Z,60.06
2023-01-28T06:09:23.796Z,60.02
2023-01-28T06:10:27.182Z,60.13
2023-01-28T06:11:31.362Z,60.17
2023-01-28T06:12:39.323Z,59.99
2023-01-28T06:14:11.371Z,59.89
2023-01-28T06:15:31.181Z,59.90
2023-01-28T06:16:42.037Z,60.13
2023-01-28T06:18:01.197Z,59.95
2023-01-28T06:19:08.036Z,59.83
2023-01-28T06:20:11.342Z,59.88
2023-01-28T06:21:16.171Z,59.93
2023-01-28T06:22:19.260Z,60.08
2023-01-28T06:23:23.519Z,60.28
2023-01-28T06:24:26.365Z,60.39
2023-01-28T06:25:29.462Z,60.45
2023-01-28T06:26:39.060Z,60.48
2023-01-28T06:27:43.305Z,60.52
2023-01-28T06:28:50.187Z,60.51
2023-01-28T06:29:53.491Z,60.45
2023-01-28T06:30:56.420Z,60.27
2023-01-28T06:32:00.929Z,60.06
2023-01-28T06:33:03.729Z,59.95
2023-01-28T06:34:06.790Z,59.85
2023-01-28T06:35:09.826Z,59.78
2023-01-28T06:36:14.849Z,59.79
2023-01-28T06:37:17.640Z,59.82
2023-01-28T06:38:21.757Z,59.86
2023-01-28T06:39:27.883Z,59.81
2023-01-28T06:40:30.715Z,59.85
2023-01-28T06:43:09.849Z,60.14
2023-01-28T06:44:13.143Z,60.05
2023-01-28T06:45:18.466Z,59.91
2023-01-28T06:46:21.371Z,59.73
2023-01-28T06:47:25.549Z,59.70
2023-01-28T06:48:30.141Z,59.74
2023-01-28T06:49:32.977Z,59.78
2023-01-28T06:50:36.165Z,59.81
2023-01-28T06:51:39.009Z,59.81
2023-01-28T06:52:42.276Z,59.81
2023-01-28T06:53:46.107Z,59.86
2023-01-28T06:54:49.110Z,59.92
2023-01-28T06:55:52.128Z,59.95
2023-01-28T06:56:54.859Z,59.99
2023-01-28T06:57:57.755Z,60.05
2023-01-28T06:59:01.159Z,60.07
2023-01-28T07:00:05.038Z,59.99
2023-01-28T07:01:14.170Z,59.91
2023-01-28T07:02:30.749Z,59.76
2023-01-28T07:03:41.179Z,59.72
2023-01-28T07:04:44.059Z,59.64
2023-01-28T07:05:48.899Z,59.51
2023-01-28T07:06:55.076Z,59.58
2023-01-28T07:07:58.119Z,59.51
2023-01-28T07:09:00.826Z,59.32
2023-01-28T07:10:05.360Z,58.46
2023-01-28T07:11:08.562Z,57.45
2023-01-28T07:12:11.489Z,56.76
2023-01-28T07:13:14.213Z,56.32
2023-01-28T07:14:16.995Z,55.86
2023-01-28T07:15:19.823Z,55.70
2023-01-28T07:16:22.704Z,55.41
2023-01-28T07:17:25.647Z,55.33
2023-01-28T07:18:28.466Z,55.60
2023-01-28T07:19:31.236Z,55.77
2023-01-28T07:20:34.025Z,55.89
2023-01-28T07:21:36.864Z,55.78
2023-01-28T07:22:43.904Z,55.63
2023-01-28T07:23:46.722Z,55.94
2023-01-28T07:24:49.543Z,56.68
2023-01-28T07:25:52.393Z,56.54
2023-01-28T07:26:55.252Z,56.46
2023-01-28T07:27:58.184Z,56.79
2023-01-28T07:29:00.977Z,56.67
2023-01-28T07:30:04.021Z,56.65
2023-01-28T07:31:06.929Z,56.85
2023-01-28T07:32:10.057Z,57.43
2023-01-28T07:33:13.261Z,57.07
2023-01-28T07:34:16.071Z,56.94
2023-01-28T07:35:18.843Z,56.98
2023-01-28T07:36:21.709Z,57.44
2023-01-28T07:37:24.548Z,57.50
2023-01-28T07:38:27.483Z,57.43
2023-01-28T07:39:30.203Z,57.30
2023-01-28T07:40:32.971Z,57.46
2023-01-28T07:41:36.087Z,57.48
2023-01-28T07:42:42.377Z,57.64
2023-01-28T07:43:48.053Z,57.55
2023-01-28T07:44:50.854Z,57.76
2023-01-28T07:45:53.701Z,59.48
2023-01-28T07:46:56.488Z,59.71
2023-01-28T07:48:04.160Z,58.94
2023-01-28T07:49:07.671Z,59.66
2023-01-28T07:50:11.056Z,59.24
2023-01-28T07:51:14.167Z,59.27
2023-01-28T07:52:17.213Z,59.22
2023-01-28T07:53:20.507Z,59.54
2023-01-28T07:54:23.881Z,59.50
2023-01-28T07:55:28.284Z,59.57
2023-01-28T07:56:33.146Z,59.64
2023-01-28T07:57:35.975Z,59.75
2023-01-28T07:58:39.598Z,60.14
2023-01-28T07:59:42.783Z,60.01
2023-01-28T08:00:45.702Z,60.58
2023-01-28T08:01:48.619Z,61.20
2023-01-28T08:02:55.493Z,60.92
2023-01-28T08:03:58.653Z,61.01
2023-01-28T08:05:01.940Z,60.87
2023-01-28T08:06:04.995Z,61.43
2023-01-28T08:07:08.289Z,61.17
2023-01-28T08:08:11.327Z,61.62
2023-01-28T08:09:14.139Z,61.37
2023-01-28T08:10:18.033Z,61.21
2023-01-28T08:11:21.241Z,61.40
2023-01-28T08:12:24.735Z,61.48
2023-01-28T08:13:27.823Z,62.28
2023-01-28T08:14:33.517Z,62.45
2023-01-28T08:15:37.153Z,63.47
2023-01-28T08:16:39.942Z,64.59
2023-01-28T08:17:42.697Z,65.47
2023-01-28T08:18:45.457Z,65.88
2023-01-28T08:19:48.506Z,66.16
2023-01-28T08:20:55.313Z,66.44
2023-01-28T08:21:58.077Z,66.63
2023-01-28T08:23:17.737Z,66.82
2023-01-28T08:24:20.591Z,66.80
2023-01-28T08:25:23.408Z,66.73
2023-01-28T08:26:26.287Z,66.65
2023-01-28T08:27:29.127Z,66.09
2023-01-28T08:28:32.248Z,65.60
2023-01-28T08:29:35.056Z,65.64
2023-01-28T08:30:39.039Z,65.52
2023-01-28T08:31:42.094Z,65.28
2023-01-28T08:32:44.947Z,65.13
2023-01-28T08:33:47.678Z,65.04
2023-01-28T08:34:51.117Z,64.32
2023-01-28T08:35:54.084Z,64.10
2023-01-28T08:36:57.087Z,63.37
2023-01-28T08:38:00.678Z,62.84
2023-01-28T08:39:05.275Z,62.51
2023-01-28T08:40:08.755Z,62.25
2023-01-28T08:41:11.824Z,62.22
2023-01-28T08:42:14.750Z,62.06
2023-01-28T08:43:17.575Z,61.60
2023-01-28T08:44:20.491Z,61.32
2023-01-28T08:45:27.666Z,60.93
2023-01-28T08:46:31.111Z,61.01
2023-01-28T08:47:34.111Z,61.45
2023-01-28T08:48:38.530Z,61.32
2023-01-28T08:49:41.312Z,61.16
2023-01-28T08:50:45.121Z,60.96
2023-01-28T08:51:47.943Z,60.53
2023-01-28T08:52:55.750Z,60.26
2023-01-28T08:53:58.520Z,59.83
2023-01-28T08:55:01.309Z,59.69
2023-01-28T08:56:04.163Z,59.16
2023-01-28T08:57:06.993Z,58.12
2023-01-28T08:58:11.191Z,57.34
2023-01-28T08:59:14.041Z,56.62
2023-01-28T09:00:17.483Z,56.20
2023-01-28T09:01:20.493Z,55.98
2023-01-28T09:02:31.452Z,55.80
2023-01-28T09:03:36.273Z,55.61
2023-01-28T09:04:39.336Z,55.73
2023-01-28T09:05:42.167Z,56.45
2023-01-28T09:06:44.958Z,56.62
2023-01-28T09:07:48.486Z,56.67
2023-01-28T09:08:51.377Z,57.26
2023-01-28T09:09:54.124Z,56.94
2023-01-28T09:10:57.854Z,56.65
2023-01-28T09:12:00.603Z,56.89
2023-01-28T09:13:07.187Z,56.94
2023-01-28T09:14:10.215Z,57.36
2023-01-28T09:15:12.970Z,57.35
2023-01-28T09:16:15.806Z,57.31
2023-01-28T09:17:18.957Z,57.38
2023-01-28T09:18:22.018Z,57.84
2023-01-28T09:19:25.160Z,57.61
2023-01-28T09:20:27.956Z,58.04
2023-01-28T09:21:30.689Z,58.10
2023-01-28T09:22:33.437Z,58.29
2023-01-28T09:23:39.374Z,58.39
2023-01-28T09:24:42.679Z,58.46
2023-01-28T09:25:45.472Z,58.40
2023-01-28T09:26:48.843Z,58.88
2023-01-28T09:27:51.892Z,59.44
2023-01-28T09:28:54.839Z,59.21
2023-01-28T09:29:57.791Z,59.21
2023-01-28T09:31:11.242Z,59.61
2023-01-28T09:32:14.126Z,59.61
2023-01-28T09:33:17.010Z,59.44
2023-01-28T09:34:19.794Z,59.56
2023-01-28T09:35:22.917Z,59.53
2023-01-28T09:36:25.750Z,59.33
2023-01-28T09:37:28.512Z,59.72
2023-01-28T09:38:31.968Z,59.69
2023-01-28T09:39:34.785Z,59.83
2023-01-28T09:40:40.934Z,59.64
2023-01-28T09:42:02.594Z,59.40
2023-01-28T09:43:25.853Z,60.11
2023-01-28T09:44:51.943Z,60.25
2023-01-28T09:46:03.075Z,59.86
2023-01-28T09:47:10.649Z,59.83
2023-01-28T09:48:15.145Z,59.60
2023-01-28T09:49:23.422Z,59.45
2023-01-28T09:50:35.221Z,59.49
2023-01-28T09:51:42.387Z,60.15
2023-01-28T09:52:45.259Z,60.02
2023-01-28T09:53:50.901Z,60.01
2023-01-28T09:55:05.913Z,60.20
2023-01-28T09:56:14.482Z,60.05
2023-01-28T09:57:20.991Z,59.94
2023-01-28T09:58:23.772Z,60.62
2023-01-28T09:59:26.554Z,60.38
2023-01-28T10:00:29.280Z,60.01
2023-01-28T10:01:39.018Z,60.47
2023-01-28T10:02:51.551Z,61.69
2023-01-28T10:03:57.433Z,62.37
2023-01-28T10:05:08.379Z,62.77
2023-01-28T10:06:34.426Z,62.98
2023-01-28T10:07:37.382Z,63.60
2023-01-28T10:08:59.168Z,64.03
2023-01-28T10:10:06.411Z,63.97
2023-01-28T10:11:24.138Z,62.57
2023-01-28T10:12:45.940Z,63.33
2023-01-28T10:13:53.609Z,62.66
2023-01-28T10:15:15.265Z,62.65
2023-01-28T10:16:21.434Z,60.89
2023-01-28T10:17:24.173Z,61.31
2023-01-28T10:18:47.100Z,60.48
2023-01-28T10:19:53.809Z,59.67
2023-01-28T10:21:02.631Z,58.47
2023-01-28T10:22:26.035Z,58.37
2023-01-28T10:23:34.626Z,56.87
2023-01-28T10:24:47.147Z,57.08
2023-01-28T10:25:50.239Z,56.58
2023-01-28T10:26:53.389Z,56.80
2023-01-28T10:27:56.183Z,57.00
2023-01-28T10:29:03.839Z,57.96
2023-01-28T10:30:25.016Z,57.59
2023-01-28T10:31:32.025Z,57.36
2023-01-28T10:32:37.297Z,57.72
2023-01-28T10:33:40.348Z,57.66
2023-01-28T10:34:43.277Z,58.19
2023-01-28T10:35:48.064Z,59.85
2023-01-28T10:36:51.539Z,58.75
2023-01-28T10:37:59.287Z,59.23
2023-01-28T10:39:02.218Z,60.20
2023-01-28T10:40:05.825Z,60.26
2023-01-28T10:41:11.152Z,60.34
2023-01-28T10:42:24.012Z,60.81
2023-01-28T10:43:29.829Z,60.36
2023-01-28T10:44:36.121Z,60.28
2023-01-28T10:45:42.868Z,60.45
2023-01-28T10:46:48.253Z,62.11
2023-01-28T10:48:14.065Z,61.70
2023-01-28T10:49:19.421Z,62.74
2023-01-28T10:50:23.780Z,63.07
2023-01-28T10:51:30.703Z,63.69
2023-01-28T10:52:33.451Z,63.91
2023-01-28T10:53:46.139Z,63.86
2023-01-28T10:54:58.844Z,63.67
2023-01-28T10:56:02.649Z,63.79
2023-01-28T10:57:09.672Z,63.28
2023-01-28T10:58:24.054Z,61.65
2023-01-28T10:59:28.056Z,60.97
2023-01-28T11:00:35.713Z,60.76
2023-01-28T11:01:58.756Z,59.87
2023-01-28T11:03:01.563Z,59.97
2023-01-28T11:04:04.557Z,59.81
2023-01-28T11:05:17.762Z,59.90
2023-01-28T11:06:25.287Z,59.61
2023-01-28T11:07:28.064Z,58.64
2023-01-28T11:08:31.646Z,58.10
2023-01-28T11:09:35.806Z,57.47
2023-01-28T11:10:40.543Z,57.68
2023-01-28T11:11:43.341Z,57.45
2023-01-28T11:12:54.550Z,57.75
2023-01-28T11:13:58.718Z,57.36
2023-01-28T11:15:05.592Z,57.33
2023-01-28T11:16:17.657Z,57.76
2023-01-28T11:17:24.722Z,58.00
2023-01-28T11:18:30.221Z,57.53
2023-01-28T11:19:36.597Z,58.29
2023-01-28T11:20:42.160Z,58.78
2023-01-28T11:21:48.977Z,57.82
2023-01-28T11:22:52.829Z,58.38
2023-01-28T11:24:06.992Z,59.56
2023-01-28T11:25:23.202Z,58.15
2023-01-28T11:26:29.636Z,57.72
2023-01-28T11:27:33.404Z,57.74
2023-01-28T11:28:40.188Z,57.67
2023-01-28T11:29:43.331Z,60.42
2023-01-28T11:30:51.159Z,59.14
2023-01-28T11:31:54.581Z,58.65
2023-01-28T11:33:00.211Z,58.32
2023-01-28T11:34:05.046Z,58.37
2023-01-28T11:35:08.175Z,58.82
2023-01-28T11:36:14.608Z,58.23
2023-01-28T11:37:18.698Z,58.12
2023-01-28T11:38:23.458Z,58.87
2023-01-28T11:39:28.686Z,59.57
2023-01-28T11:40:31.412Z,58.83
2023-01-28T11:41:35.763Z,60.79
2023-01-28T11:42:38.873Z,60.12
2023-01-28T11:43:43.482Z,59.28
2023-01-28T11:44:47.336Z,59.09
2023-01-28T11:46:05.212Z,58.93
2023-01-28T11:47:13.953Z,61.98
2023-01-28T11:48:19.281Z,61.20
2023-01-28T11:49:43.712Z,60.95
2023-01-28T11:51:12.824Z,62.82
2023-01-28T11:52:21.871Z,62.68
2023-01-28T11:53:28.037Z,63.09
2023-01-28T11:54:36.765Z,63.37
2023-01-28T11:55:53.409Z,63.79
2023-01-28T11:57:17.072Z,64.02
2023-01-28T11:58:27.315Z,62.50
2023-01-28T11:59:36.417Z,61.77
2023-01-28T12:00:58.029Z,62.11
2023-01-28T12:02:00.765Z,61.29
2023-01-28T12:03:19.028Z,60.93
2023-01-28T12:04:30.956Z,60.17
2023-01-28T12:05:45.935Z,59.55
2023-01-28T12:07:00.850Z,58.50
2023-01-28T12:08:10.649Z,56.89
2023-01-28T12:09:32.393Z,57.18
2023-01-28T12:10:54.185Z,55.55
2023-01-28T12:12:12.188Z,55.50
2023-01-28T12:13:33.916Z,55.50
2023-01-28T12:14:48.763Z,57.00
2023-01-28T12:15:57.268Z,56.54
2023-01-28T12:17:00.229Z,55.99
2023-01-28T12:18:18.994Z,55.83
2023-01-28T12:19:27.794Z,55.54
2023-01-28T12:20:49.522Z,57.61
2023-01-28T12:21:58.110Z,57.64
2023-01-28T12:23:19.712Z,56.86
2023-01-28T12:24:30.362Z,56.88
2023-01-28T12:25:47.939Z,58.38
2023-01-28T12:26:50.673Z,59.50
2023-01-28T12:28:08.899Z,59.27
2023-01-28T12:29:26.795Z,57.83
2023-01-28T12:30:37.675Z,59.32
2023-01-28T12:31:43.215Z,58.24
2023-01-28T12:33:03.314Z,57.85
2023-01-28T12:34:24.981Z,57.80
2023-01-28T12:35:32.596Z,57.63
2023-01-28T12:36:45.050Z,57.74
2023-01-28T12:37:57.774Z,58.42
2023-01-28T12:39:20.899Z,59.40
2023-01-28T12:40:32.054Z,59.32
2023-01-28T12:41:40.371Z,60.46
2023-01-28T12:42:51.795Z,60.44
2023-01-28T12:44:03.778Z,59.84
2023-01-28T12:45:25.020Z,60.74
2023-01-28T12:46:34.213Z,60.16
2023-01-28T12:47:39.400Z,59.34
2023-01-28T12:48:51.188Z,59.39
2023-01-28T12:49:58.485Z,58.83
2023-01-28T12:51:14.549Z,58.62
2023-01-28T12:52:24.372Z,58.75
2023-01-28T12:53:30.472Z,59.42
2023-01-28T12:54:40.477Z,59.92
2023-01-28T12:55:46.375Z,59.38
2023-01-28T12:56:51.139Z,59.98
2023-01-28T12:57:56.582Z,60.19
2023-01-28T12:59:22.295Z,59.31
2023-01-28T13:00:30.287Z,60.02
2023-01-28T13:01:47.460Z,60.34
2023-01-28T13:02:56.883Z,60.44
2023-01-28T13:04:18.757Z,60.09
2023-01-28T13:05:25.370Z,59.37
2023-01-28T13:06:38.192Z,60.48
2023-01-28T13:07:53.657Z,60.60
2023-01-28T13:08:59.136Z,60.03
2023-01-28T13:10:05.084Z,60.06
2023-01-28T13:11:13.553Z,59.61
2023-01-28T13:12:17.222Z,59.50
2023-01-28T13:13:29.087Z,60.62
2023-01-28T13:14:33.566Z,60.45
2023-01-28T13:15:40.520Z,61.38
2023-01-28T13:16:43.894Z,61.59
2023-01-28T13:17:55.888Z,60.81
2023-01-28T13:19:06.917Z,61.04
2023-01-28T13:20:16.463Z,60.34
2023-01-28T13:21:25.563Z,60.29
2023-01-28T13:22:28.595Z,61.01
2023-01-28T13:23:32.493Z,62.45
2023-01-28T13:24:35.616Z,62.13
2023-01-28T13:25:48.261Z,61.92
2023-01-28T13:26:51.113Z,62.75
2023-01-28T13:27:58.829Z,63.13
2023-01-28T13:29:14.185Z,63.54
2023-01-28T13:30:25.571Z,61.88
2023-01-28T13:31:36.825Z,61.87
2023-01-28T13:32:39.729Z,61.66
2023-01-28T13:33:44.080Z,61.42
2023-01-28T13:34:56.812Z,61.40
2023-01-28T13:36:02.746Z,61.85
2023-01-28T13:37:27.344Z,62.10
2023-01-28T13:38:36.504Z,61.15
2023-01-28T13:39:52.089Z,59.45
2023-01-28T13:40:56.315Z,58.63
2023-01-28T13:42:22.121Z,58.33
2023-01-28T13:43:27.704Z,58.34
2023-01-28T13:44:30.477Z,57.16
2023-01-28T13:45:34.332Z,57.31
2023-01-28T13:46:40.232Z,57.30
2023-01-28T13:47:48.128Z,57.28
2023-01-28T13:48:54.650Z,57.06
2023-01-28T13:50:04.020Z,58.26
2023-01-28T13:51:19.658Z,57.82
2023-01-28T13:52:31.842Z,58.27
2023-01-28T13:53:48.293Z,58.67
2023-01-28T13:54:54.622Z,58.46
2023-01-28T13:55:59.313Z,58.57
2023-01-28T13:57:08.635Z,59.18
2023-01-28T13:58:42.776Z,58.87
2023-01-28T13:59:46.222Z,58.81
2023-01-28T14:00:54.828Z,58.39
2023-01-28T14:02:15.726Z,58.38
2023-01-28T14:03:35.222Z,58.23
2023-01-28T14:04:49.968Z,58.29
2023-01-28T14:06:11.477Z,59.95
2023-01-28T14:07:35.835Z,61.13
2023-01-28T14:08:46.821Z,59.74
2023-01-28T14:09:59.423Z,59.48
2023-01-28T14:11:16.181Z,60.24
2023-01-28T14:12:31.289Z,59.72
2023-01-28T14:14:04.656Z,60.19
2023-01-28T14:15:27.257Z,59.65
2023-01-28T14:16:52.099Z,59.77
2023-01-28T14:17:56.401Z,61.14
2023-01-28T14:19:02.087Z,61.82
2023-01-28T14:20:05.976Z,61.26
2023-01-28T14:21:22.474Z,60.68
2023-01-28T14:22:26.227Z,60.47
2023-01-28T14:23:32.010Z,60.93
2023-01-28T14:24:42.444Z,61.13
2023-01-28T14:25:48.218Z,61.02
2023-01-28T14:27:03.390Z,60.72
2023-01-28T14:28:07.212Z,60.84
2023-01-28T14:29:11.356Z,61.15
2023-01-28T14:30:33.191Z,62.69
2023-01-28T14:31:39.500Z,62.82
2023-01-28T14:32:50.297Z,63.60
2023-01-28T14:33:55.026Z,64.08
2023-01-28T14:35:01.323Z,64.37
2023-01-28T14:36:05.246Z,64.65
2023-01-28T14:37:11.289Z,64.07
2023-01-28T14:38:23.338Z,64.32
2023-01-28T14:39:28.246Z,64.28
2023-01-28T14:40:31.976Z,64.04
2023-01-28T14:41:35.071Z,63.85
2023-01-28T14:42:39.946Z,63.63
2023-01-28T14:43:43.048Z,63.40
2023-01-28T14:44:47.792Z,62.22
2023-01-28T14:45:56.645Z,62.81
2023-01-28T14:47:10.173Z,63.02
2023-01-28T14:48:15.975Z,62.97
2023-01-28T14:49:30.913Z,62.21
2023-01-28T14:50:48.746Z,61.57
2023-01-28T14:51:58.562Z,61.61
2023-01-28T14:53:16.598Z,62.12
2023-01-28T14:54:35.409Z,62.12
2023-01-28T14:56:03.638Z,61.66
2023-01-28T14:57:25.105Z,61.46
2023-01-28T14:58:57.344Z,61.61
2023-01-28T15:00:01.689Z,61.47
2023-01-28T15:01:04.949Z,60.85
2023-01-28T15:02:21.868Z,60.59
2023-01-28T15:03:26.186Z,61.02
2023-01-28T15:04:30.834Z,61.52
2023-01-28T15:05:33.676Z,61.28
2023-01-28T15:06:37.076Z,61.29
2023-01-28T15:07:43.572Z,61.27
2023-01-28T15:08:46.672Z,61.01
2023-01-28T15:10:04.915Z,61.18
2023-01-28T15:11:11.336Z,61.14
2023-01-28T15:12:16.149Z,60.95
2023-01-28T15:13:29.641Z,61.20
2023-01-28T15:14:32.995Z,61.25
2023-01-28T15:15:37.142Z,61.26
2023-01-28T15:16:39.930Z,61.06
2023-01-28T15:17:42.892Z,61.06
2023-01-28T15:18:46.707Z,61.17
2023-01-28T15:19:49.542Z,61.24
2023-01-28T15:20:54.203Z,61.22
2023-01-28T15:21:57.835Z,61.10
2023-01-28T15:23:01.793Z,61.02
2023-01-28T15:24:05.270Z,60.99
2023-01-28T15:25:15.441Z,60.96
2023-01-28T15:26:20.374Z,61.01
2023-01-28T15:27:30.400Z,60.57
2023-01-28T15:28:35.468Z,60.26
2023-01-28T15:29:38.281Z,60.07
2023-01-28T15:30:45.922Z,59.91
2023-01-28T15:31:49.643Z,59.53
2023-01-28T15:32:59.213Z,59.67
2023-01-28T15:34:15.614Z,59.06
2023-01-28T15:35:18.435Z,58.37
2023-01-28T15:36:21.276Z,57.41
2023-01-28T15:37:24.095Z,56.22
2023-01-28T15:38:27.819Z,55.77
2023-01-28T15:39:30.700Z,57.05
2023-01-28T15:40:41.324Z,56.05
2023-01-28T15:41:47.502Z,55.47
2023-01-28T15:42:51.168Z,55.21
2023-01-28T15:43:54.225Z,55.25
2023-01-28T15:45:00.711Z,55.49
2023-01-28T15:46:04.114Z,57.54
2023-01-28T15:47:18.077Z,57.07
2023-01-28T15:48:21.924Z,57.22
2023-01-28T15:49:27.997Z,56.54
2023-01-28T15:50:30.998Z,56.18
2023-01-28T15:51:34.119Z,56.07
2023-01-28T15:52:38.343Z,55.94
2023-01-28T15:53:45.453Z,57.71
2023-01-28T15:54:51.618Z,58.73
2023-01-28T15:56:04.168Z,59.66
2023-01-28T15:57:20.687Z,58.91
2023-01-28T15:58:30.475Z,59.64
2023-01-28T15:59:34.117Z,58.73
2023-01-28T16:00:36.931Z,59.14
2023-01-28T16:01:39.912Z,58.47
2023-01-28T16:02:43.749Z,58.26
2023-01-28T16:03:47.902Z,58.36
2023-01-28T16:04:56.981Z,58.46
2023-01-28T16:06:04.777Z,58.72
2023-01-28T16:07:08.072Z,59.04
2023-01-28T16:08:15.433Z,58.70
2023-01-28T16:09:29.618Z,58.66
2023-01-28T16:10:32.620Z,59.03
2023-01-28T16:11:38.604Z,59.56
2023-01-28T16:12:41.591Z,59.78
2023-01-28T16:13:44.483Z,59.68
2023-01-28T16:15:04.377Z,59.98
2023-01-28T16:16:07.765Z,59.83
2023-01-28T16:17:11.268Z,59.83
2023-01-28T16:18:21.788Z,59.66
2023-01-28T16:19:24.718Z,59.58
2023-01-28T16:20:28.644Z,59.49
2023-01-28T16:21:34.528Z,59.67
2023-01-28T16:22:38.276Z,59.83
2023-01-28T16:23:50.367Z,59.91
2023-01-28T16:24:53.939Z,60.38
2023-01-28T16:26:01.142Z,60.32
2023-01-28T16:27:05.389Z,60.38
2023-01-28T16:28:16.995Z,60.46
2023-01-28T16:29:20.080Z,60.75
2023-01-28T16:30:23.012Z,60.66
2023-01-28T16:31:26.104Z,61.06
2023-01-28T16:32:30.909Z,60.79
2023-01-28T16:33:33.684Z,61.14
2023-01-28T16:34:36.697Z,61.20
2023-01-28T16:36:03.503Z,61.16
2023-01-28T16:37:02.285Z,61.25
2023-01-28T16:38:05.253Z,61.49
2023-01-28T16:39:08.084Z,61.89
2023-01-28T16:40:12.535Z,61.47
2023-01-28T16:41:25.396Z,61.56
2023-01-28T16:42:28.176Z,61.77
2023-01-28T16:43:31.149Z,62.38
2023-01-28T16:44:34.668Z,62.81
2023-01-28T16:45:37.933Z,64.25
2023-01-28T16:46:40.783Z,65.08
2023-01-28T16:47:43.788Z,65.38
2023-01-28T16:48:46.531Z,65.66
2023-01-28T16:49:49.557Z,65.06
2023-01-28T16:50:52.418Z,65.06
2023-01-28T16:51:55.246Z,64.82
2023-01-28T16:52:58.543Z,64.71
2023-01-28T16:54:02.248Z,64.74
2023-01-28T16:55:05.307Z,64.45
2023-01-28T16:56:30.076Z,64.29
2023-01-28T16:57:35.560Z,63.70
2023-01-28T16:58:38.332Z,62.25
2023-01-28T16:59:41.282Z,62.61
2023-01-28T17:00:44.729Z,63.54
2023-01-28T17:01:47.992Z,63.80
2023-01-28T17:02:51.625Z,63.72
2023-01-28T17:03:54.611Z,63.20
2023-01-28T17:04:57.437Z,63.42
2023-01-28T17:06:00.211Z,63.80
2023-01-28T17:07:03.550Z,63.83
2023-01-28T17:08:06.330Z,63.76
2023-01-28T17:09:09.236Z,63.86
2023-01-28T17:10:12.180Z,63.62
2023-01-28T17:11:15.153Z,62.63
2023-01-28T17:12:18.100Z,63.26
2023-01-28T17:13:21.388Z,62.99